Time;durP1;ratioP1;P1;durP2;ratioP2;P2;SDS_P1;SDS_P2;PMS_P1;PMS_P2;Temp;Humidity;BMP_temperature;BMP_pressure;BME280_temperature;BME280_humidity;BME280_pressure;Samples;Min_cycle;Max_cycle;Signal;HPM_P1;HPM_P2
2022/01/16 00:01:22;;;;;;;30.23;19.90;;;;;;;;;;6220131;23;20189;-87
2022/01/16 00:06:30;;;;;;;28.37;18.77;;;;;;;;;;6213885;23;20170;-83
2022/01/16 00:08:59;;;;;;;28.80;19.17;;;;;;;;;;6220038;23;20213;-86
2022/01/16 00:11:27;;;;;;;30.67;18.70;;;;;;;;;;6220752;23;20200;-84
2022/01/16 00:13:55;;;;;;;32.43;20.27;;;;;;;;;;6220191;23;20184;-85
2022/01/16 00:16:23;;;;;;;30.83;18.27;;;;;;;;;;6219533;23;20227;-85
2022/01/16 00:18:52;;;;;;;30.63;19.03;;;;;;;;;;6219591;23;20195;-85
2022/01/16 00:21:19;;;;;;;32.33;19.73;;;;;;;;;;6219478;23;20214;-85
2022/01/16 00:23:47;;;;;;;30.77;18.63;;;;;;;;;;6219068;23;20173;-86
2022/01/16 00:26:16;;;;;;;29.93;19.00;;;;;;;;;;6219814;23;20178;-85
2022/01/16 00:28:43;;;;;;;28.80;18.57;;;;;;;;;;6219797;23;20201;-85
2022/01/16 00:31:11;;;;;;;28.90;18.33;;;;;;;;;;6220416;23;20174;-86
2022/01/16 00:33:44;;;;;;;31.37;19.33;;;;;;;;;;6221431;23;20173;-85
2022/01/16 00:36:12;;;;;;;32.37;18.87;;;;;;;;;;6221463;23;20176;-85
2022/01/16 00:38:40;;;;;;;30.47;18.77;;;;;;;;;;6220036;23;20193;-85
2022/01/16 00:41:07;;;;;;;30.13;18.40;;;;;;;;;;6220759;23;20204;-85
2022/01/16 00:43:36;;;;;;;32.97;18.20;;;;;;;;;;6221174;23;20169;-85
2022/01/16 00:46:04;;;;;;;28.57;18.33;;;;;;;;;;6220549;23;20227;-86
2022/01/16 00:48:31;;;;;;;29.87;18.87;;;;;;;;;;6220112;23;20248;-85
2022/01/16 00:50:58;;;;;;;31.73;19.50;;;;;;;;;;6223846;23;20165;-85
2022/01/16 00:53:26;;;;;;;29.03;17.97;;;;;;;;;;6224000;23;20208;-85
2022/01/16 00:55:53;;;;;;;29.97;17.97;;;;;;;;;;6232567;23;20170;-85
2022/01/16 00:58:21;;;;;;;30.47;18.30;;;;;;;;;;6215517;23;20193;-85
2022/01/16 01:00:49;;;;;;;30.03;19.43;;;;;;;;;;6216674;23;20193;-85
2022/01/16 01:03:17;;;;;;;29.90;18.63;;;;;;;;;;6231859;23;20169;-85
2022/01/16 01:05:44;;;;;;;30.23;19.00;;;;;;;;;;6216426;23;20178;-85
2022/01/16 01:08:12;;;;;;;31.57;19.00;;;;;;;;;;6215295;23;20239;-83
2022/01/16 01:10:42;;;;;;;29.07;18.67;;;;;;;;;;6216199;23;20173;-85
2022/01/16 01:13:11;;;;;;;29.83;18.57;;;;;;;;;;6224335;23;20177;-86
2022/01/16 01:15:46;;;;;;;32.03;20.03;;;;;;;;;;6227515;23;20173;-85
2022/01/16 01:18:15;;;;;;;34.27;20.23;;;;;;;;;;6222866;23;20192;-85
2022/01/16 01:20:43;;;;;;;30.23;18.70;;;;;;;;;;6223832;23;20228;-85
2022/01/16 01:23:12;;;;;;;32.73;19.47;;;;;;;;;;6222719;23;20203;-85
2022/01/16 01:25:40;;;;;;;31.10;20.10;;;;;;;;;;6222169;23;20236;-87
2022/01/16 01:28:08;;;;;;;31.10;20.07;;;;;;;;;;6221888;23;20231;-85
2022/01/16 01:30:37;;;;;;;36.63;21.43;;;;;;;;;;6222673;23;20169;-85
2022/01/16 01:33:04;;;;;;;31.93;19.60;;;;;;;;;;6221982;23;20195;-86
2022/01/16 01:35:38;;;;;;;31.60;19.27;;;;;;;;;;6221113;23;20235;-86
2022/01/16 01:38:06;;;;;;;31.27;19.07;;;;;;;;;;6221109;23;20193;-86
2022/01/16 01:40:33;;;;;;;31.10;18.67;;;;;;;;;;6223698;23;20197;-85
2022/01/16 01:51:01;;;;;;;34.57;21.50;;;;;;;;;;6223265;23;20200;-85
2022/01/16 01:51:26;;;;;;;31.60;20.00;;;;;;;;;;6221574;23;20219;-86
2022/01/16 01:53:55;;;;;;;35.03;21.40;;;;;;;;;;6220748;23;20192;-85
2022/01/16 01:56:24;;;;;;;34.30;20.57;;;;;;;;;;6221855;23;20216;-85
2022/01/16 01:58:51;;;;;;;35.07;20.57;;;;;;;;;;6217990;23;20212;-85
2022/01/16 02:01:19;;;;;;;34.17;21.77;;;;;;;;;;6217769;23;20201;-85
2022/01/16 02:03:48;;;;;;;33.27;20.20;;;;;;;;;;6217363;23;20192;-85
2022/01/16 02:06:16;;;;;;;34.97;20.47;;;;;;;;;;6228121;23;20200;-85
2022/01/16 02:08:46;;;;;;;33.03;20.20;;;;;;;;;;6233469;23;20200;-86
2022/01/16 02:11:14;;;;;;;36.27;20.43;;;;;;;;;;6230413;23;20244;-86
2022/01/16 02:13:51;;;;;;;36.03;21.80;;;;;;;;;;6219303;23;20228;-85
2022/01/16 02:35:55;;;;;;;36.47;22.33;;;;;;;;;;6225606;23;20153;-86
2022/01/16 02:38:22;;;;;;;33.57;20.37;;;;;;;;;;6220672;23;20247;-86
2022/01/16 02:40:54;;;;;;;33.07;20.77;;;;;;;;;;6218950;23;20209;-86
2022/01/16 02:43:29;;;;;;;35.27;20.23;;;;;;;;;;6218870;23;20192;-86
2022/01/16 02:46:35;;;;;;;36.23;20.63;;;;;;;;;;6218884;23;20168;-85
2022/01/16 02:48:48;;;;;;;32.83;20.00;;;;;;;;;;6218080;23;20201;-86
2022/01/16 02:51:17;;;;;;;32.93;20.90;;;;;;;;;;6217737;23;20192;-86
2022/01/16 02:53:44;;;;;;;32.27;19.50;;;;;;;;;;6219806;23;20169;-86
2022/01/16 02:56:13;;;;;;;35.43;20.23;;;;;;;;;;6220811;23;20177;-86
2022/01/16 02:58:41;;;;;;;31.10;20.47;;;;;;;;;;6220754;23;20193;-86
2022/01/16 03:01:08;;;;;;;34.77;21.23;;;;;;;;;;6219427;23;20185;-84
2022/01/16 03:03:35;;;;;;;32.90;20.37;;;;;;;;;;6219629;23;20223;-87
2022/01/16 03:06:03;;;;;;;30.73;18.83;;;;;;;;;;6218871;23;20173;-86
2022/01/16 03:08:30;;;;;;;33.30;20.80;;;;;;;;;;6218402;23;20193;-86
2022/01/16 03:13:43;;;;;;;30.30;19.07;;;;;;;;;;6212689;23;20177;-86
2022/01/16 03:16:11;;;;;;;31.37;20.60;;;;;;;;;;6219461;23;20221;-86
2022/01/16 03:24:07;;;;;;;30.77;19.97;;;;;;;;;;6218384;23;20173;-86
2022/01/16 03:26:35;;;;;;;31.73;20.13;;;;;;;;;;6217432;23;20189;-87
2022/01/16 03:29:04;;;;;;;31.30;19.07;;;;;;;;;;6217563;23;20224;-86
2022/01/16 03:31:31;;;;;;;34.20;20.73;;;;;;;;;;6218522;23;20200;-87
2022/01/16 03:33:58;;;;;;;37.47;20.03;;;;;;;;;;6217369;23;20256;-87
2022/01/16 03:36:26;;;;;;;34.70;20.87;;;;;;;;;;6217812;23;20169;-86
2022/01/16 03:38:53;;;;;;;32.23;19.60;;;;;;;;;;6218028;23;20193;-88
2022/01/16 03:41:20;;;;;;;32.63;20.17;;;;;;;;;;6217921;23;20193;-86
2022/01/16 03:43:47;;;;;;;32.60;19.93;;;;;;;;;;6216607;23;20176;-87
2022/01/16 03:46:16;;;;;;;31.03;19.27;;;;;;;;;;6215956;23;20177;-85
2022/01/16 03:48:43;;;;;;;30.70;19.67;;;;;;;;;;6215235;23;20189;-86
2022/01/16 03:51:11;;;;;;;31.70;19.30;;;;;;;;;;6215777;23;20211;-86
2022/01/16 03:53:44;;;;;;;31.60;18.90;;;;;;;;;;6216116;23;20173;-86
2022/01/16 03:56:11;;;;;;;29.67;18.70;;;;;;;;;;6220567;23;20169;-88
2022/01/16 03:58:38;;;;;;;29.07;18.30;;;;;;;;;;6225832;23;20719;-86
2022/01/16 04:01:06;;;;;;;31.43;19.30;;;;;;;;;;6215579;23;20192;-86
2022/01/16 04:03:35;;;;;;;31.07;19.73;;;;;;;;;;6219942;23;20181;-88
2022/01/16 04:06:02;;;;;;;36.13;21.03;;;;;;;;;;6226040;23;20196;-88
2022/01/16 04:08:29;;;;;;;33.37;20.37;;;;;;;;;;6214157;23;20197;-84
2022/01/16 04:10:57;;;;;;;31.77;20.20;;;;;;;;;;6215931;23;20181;-86
2022/01/16 04:13:24;;;;;;;32.37;18.93;;;;;;;;;;6215636;23;20192;-87
2022/01/16 04:15:52;;;;;;;35.40;20.73;;;;;;;;;;6218193;23;20174;-86
2022/01/16 04:18:20;;;;;;;32.23;19.10;;;;;;;;;;6224061;23;20193;-86
2022/01/16 04:20:50;;;;;;;32.47;20.10;;;;;;;;;;6221891;23;20203;-86
2022/01/16 04:23:17;;;;;;;30.03;18.87;;;;;;;;;;6222819;23;20181;-86
2022/01/16 04:25:45;;;;;;;32.27;19.90;;;;;;;;;;6222208;23;20173;-85
2022/01/16 04:28:12;;;;;;;32.33;18.90;;;;;;;;;;6220118;23;20283;-86
2022/01/16 04:30:39;;;;;;;30.03;19.23;;;;;;;;;;6207352;23;20221;-86
2022/01/16 04:33:06;;;;;;;31.80;20.00;;;;;;;;;;6214588;23;20182;-86
2022/01/16 04:35:34;;;;;;;30.13;19.63;;;;;;;;;;6214682;23;20227;-86
2022/01/16 04:38:02;;;;;;;29.97;17.67;;;;;;;;;;6214486;23;20169;-86
2022/01/16 04:40:39;;;;;;;32.33;19.23;;;;;;;;;;6214325;23;20189;-86
2022/01/16 04:45:52;;;;;;;26.30;17.40;;;;;;;;;;6214372;23;20153;-86
2022/01/16 04:48:19;;;;;;;29.87;17.97;;;;;;;;;;6213870;23;20243;-86
2022/01/16 04:50:46;;;;;;;26.53;17.87;;;;;;;;;;6214712;23;20259;-86
2022/01/16 04:53:15;;;;;;;29.40;19.03;;;;;;;;;;6214551;23;20170;-86
2022/01/16 04:55:43;;;;;;;30.20;18.40;;;;;;;;;;6214271;23;20231;-86
2022/01/16 04:58:10;;;;;;;27.90;18.07;;;;;;;;;;6213988;23;20196;-87
2022/01/16 05:00:38;;;;;;;29.80;19.30;;;;;;;;;;6214564;23;20193;-87
2022/01/16 05:03:05;;;;;;;26.30;17.93;;;;;;;;;;6215068;23;20177;-87
2022/01/16 05:05:32;;;;;;;25.90;17.63;;;;;;;;;;6214594;23;20226;-87
2022/01/16 05:07:59;;;;;;;26.20;17.70;;;;;;;;;;6215446;23;20184;-87
2022/01/16 05:10:28;;;;;;;25.43;17.53;;;;;;;;;;6215403;23;20185;-87
2022/01/16 05:13:14;;;;;;;23.53;16.73;;;;;;;;;;6215785;23;20178;-86
2022/01/16 05:18:26;;;;;;;26.73;17.40;;;;;;;;;;6215591;23;20232;-88
2022/01/16 05:20:53;;;;;;;23.57;17.77;;;;;;;;;;6215401;23;20193;-86
2022/01/16 05:23:22;;;;;;;25.93;17.40;;;;;;;;;;6215886;23;20177;-87
2022/01/16 05:25:51;;;;;;;28.80;17.83;;;;;;;;;;6216083;23;20173;-86
2022/01/16 05:28:18;;;;;;;25.47;17.80;;;;;;;;;;6213861;23;20219;-87
2022/01/16 05:30:46;;;;;;;25.47;17.13;;;;;;;;;;6213546;23;20228;-86
2022/01/16 05:33:13;;;;;;;24.97;18.00;;;;;;;;;;6214244;23;20223;-87
2022/01/16 05:35:40;;;;;;;26.60;18.50;;;;;;;;;;6214475;23;20224;-87
2022/01/16 05:38:07;;;;;;;26.80;17.30;;;;;;;;;;6213919;23;20200;-87
2022/01/16 05:40:35;;;;;;;25.57;17.77;;;;;;;;;;6212568;23;20198;-87
2022/01/16 05:43:05;;;;;;;25.07;18.07;;;;;;;;;;6212596;23;20227;-86
2022/01/16 05:45:37;;;;;;;24.50;16.90;;;;;;;;;;6212663;23;20173;-87
2022/01/16 05:48:04;;;;;;;27.00;18.23;;;;;;;;;;6213037;23;20231;-86
2022/01/16 05:50:34;;;;;;;27.37;17.73;;;;;;;;;;6213644;23;20247;-87
2022/01/16 05:53:02;;;;;;;26.70;18.00;;;;;;;;;;6214108;23;20173;-86
2022/01/16 05:55:36;;;;;;;27.17;18.10;;;;;;;;;;6214155;23;20249;-86
2022/01/16 05:58:05;;;;;;;25.83;17.63;;;;;;;;;;6213389;23;20173;-86
2022/01/16 06:00:32;;;;;;;22.90;17.33;;;;;;;;;;6213878;23;20189;-86
2022/01/16 06:02:59;;;;;;;25.17;17.97;;;;;;;;;;6214246;23;20169;-86
2022/01/16 06:05:26;;;;;;;26.03;17.00;;;;;;;;;;6214336;23;20180;-86
2022/01/16 06:07:56;;;;;;;26.07;17.80;;;;;;;;;;6213316;23;20170;-86
2022/01/16 06:10:23;;;;;;;23.60;17.63;;;;;;;;;;6213842;23;20193;-86
2022/01/16 06:12:52;;;;;;;23.97;16.73;;;;;;;;;;6214335;23;20219;-86
2022/01/16 06:15:21;;;;;;;23.73;17.83;;;;;;;;;;6213617;23;20204;-85
2022/01/16 06:17:49;;;;;;;23.43;16.90;;;;;;;;;;6214562;23;20173;-86
2022/01/16 06:20:16;;;;;;;30.40;18.43;;;;;;;;;;6214117;23;20267;-85
2022/01/16 06:22:44;;;;;;;25.63;17.97;;;;;;;;;;6213868;23;20315;-86
2022/01/16 06:25:12;;;;;;;25.30;18.43;;;;;;;;;;6213623;23;20242;-86
2022/01/16 06:27:39;;;;;;;23.47;16.43;;;;;;;;;;6212958;23;20224;-87
2022/01/16 06:30:07;;;;;;;24.00;17.33;;;;;;;;;;6212928;23;20205;-86
2022/01/16 06:32:37;;;;;;;20.73;16.47;;;;;;;;;;6214367;23;20594;-88
2022/01/16 06:35:04;;;;;;;23.33;17.57;;;;;;;;;;6215616;23;20200;-87
2022/01/16 06:37:32;;;;;;;23.87;16.47;;;;;;;;;;6212498;23;20173;-85
2022/01/16 06:39:59;;;;;;;22.80;16.17;;;;;;;;;;6213195;23;20247;-85
2022/01/16 06:42:37;;;;;;;25.90;17.40;;;;;;;;;;6212592;23;20197;-87
2022/01/16 06:45:04;;;;;;;22.47;16.27;;;;;;;;;;6214661;23;20184;-85
2022/01/16 06:47:32;;;;;;;22.73;17.50;;;;;;;;;;6213246;23;20289;-85
2022/01/16 06:50:00;;;;;;;22.60;16.73;;;;;;;;;;6214752;23;20212;-85
2022/01/16 06:52:32;;;;;;;26.97;18.23;;;;;;;;;;6213104;23;20637;-85
2022/01/16 06:55:00;;;;;;;23.43;17.33;;;;;;;;;;6211816;23;20165;-86
2022/01/16 06:57:27;;;;;;;21.30;15.40;;;;;;;;;;6212033;23;20177;-85
2022/01/16 06:59:54;;;;;;;25.07;16.77;;;;;;;;;;6212953;23;20196;-85
2022/01/16 07:02:24;;;;;;;24.27;17.17;;;;;;;;;;6213447;23;20189;-89
2022/01/16 07:05:09;;;;;;;;;;;;;;;;;;;;;
2022/01/16 07:07:38;;;;;;;24.90;17.43;;;;;;;;;;6212783;23;20154;-85
2022/01/16 07:10:06;;;;;;;25.20;17.17;;;;;;;;;;6216933;23;20193;-85
2022/01/16 07:12:33;;;;;;;25.10;17.47;;;;;;;;;;6213395;23;20169;-85
2022/01/16 07:15:00;;;;;;;25.83;18.17;;;;;;;;;;6212248;23;20177;-86
2022/01/16 07:17:28;;;;;;;22.17;16.90;;;;;;;;;;6212535;23;20173;-84
2022/01/16 07:19:55;;;;;;;23.50;16.77;;;;;;;;;;6216432;23;20193;-83
2022/01/16 07:22:23;;;;;;;23.40;16.37;;;;;;;;;;6218053;23;20190;-81
2022/01/16 07:24:52;;;;;;;23.23;17.07;;;;;;;;;;6219304;23;20227;-81
2022/01/16 07:27:20;;;;;;;24.30;17.03;;;;;;;;;;6218375;23;20200;-81
2022/01/16 07:29:47;;;;;;;25.23;16.93;;;;;;;;;;6218124;23;20205;-86
2022/01/16 07:32:14;;;;;;;24.03;17.23;;;;;;;;;;6218793;23;20173;-84
2022/01/16 07:34:44;;;;;;;29.43;19.30;;;;;;;;;;6219262;23;20174;-88
2022/01/16 07:39:59;;;;;;;25.03;17.67;;;;;;;;;;6212914;23;20731;-87
2022/01/16 07:42:26;;;;;;;26.50;18.47;;;;;;;;;;6216009;23;20189;-89
2022/01/16 07:44:53;;;;;;;24.00;18.67;;;;;;;;;;6215705;23;20244;-87
2022/01/16 07:47:21;;;;;;;24.30;17.83;;;;;;;;;;6214892;23;20177;-89
2022/01/16 07:49:48;;;;;;;22.30;16.60;;;;;;;;;;6215526;23;20197;-90
2022/01/16 07:52:15;;;;;;;27.47;19.43;;;;;;;;;;6218928;23;20169;-85
2022/01/16 07:58:01;;;;;;;27.73;18.80;;;;;;;;;;6210288;23;20225;-89
2022/01/16 08:00:46;;;;;;;23.97;18.27;;;;;;;;;;6215388;23;20255;-88
2022/01/16 08:03:15;;;;;;;27.30;18.60;;;;;;;;;;6215203;23;20653;-84
2022/01/16 08:06:06;;;;;;;25.93;19.20;;;;;;;;;;6218121;23;20173;-89
2022/01/16 08:08:41;;;;;;;25.53;19.17;;;;;;;;;;6215707;23;20161;-84
2022/01/16 08:11:09;;;;;;;26.47;18.77;;;;;;;;;;6218739;23;20204;-85
2022/01/16 08:13:36;;;;;;;24.77;19.33;;;;;;;;;;6220077;23;20181;-90
2022/01/16 08:19:15;;;;;;;23.40;17.73;;;;;;;;;;6220298;23;20173;-85
2022/01/16 08:21:43;;;;;;;23.77;17.33;;;;;;;;;;6220741;23;20264;-83
2022/01/16 08:24:10;;;;;;;22.80;17.67;;;;;;;;;;6217509;23;20192;-83
2022/01/16 08:26:37;;;;;;;21.10;16.60;;;;;;;;;;6216617;23;20235;-83
2022/01/16 08:29:04;;;;;;;22.70;17.13;;;;;;;;;;6217963;23;20185;-83
2022/01/16 08:34:36;;;;;;;23.97;18.07;;;;;;;;;;6174588;23;20188;-85
2022/01/16 08:37:03;;;;;;;22.90;18.37;;;;;;;;;;6218433;23;20161;-84
2022/01/16 08:39:40;;;;;;;23.77;18.30;;;;;;;;;;6219632;23;20197;-88
2022/01/16 08:42:15;;;;;;;23.57;17.83;;;;;;;;;;6217872;23;20185;-83
2022/01/16 08:44:43;;;;;;;22.80;17.57;;;;;;;;;;6220858;23;20149;-83
2022/01/16 08:47:13;;;;;;;20.23;16.97;;;;;;;;;;6217949;23;20228;-89
2022/01/16 08:49:42;;;;;;;20.73;17.70;;;;;;;;;;6216758;23;20251;-85
2022/01/16 08:52:09;;;;;;;21.37;17.90;;;;;;;;;;6214608;23;20180;-85
2022/01/16 08:54:37;;;;;;;23.17;17.83;;;;;;;;;;6216157;23;20239;-86
2022/01/16 08:57:05;;;;;;;21.50;18.57;;;;;;;;;;6215401;23;20189;-85
2022/01/16 08:59:32;;;;;;;22.47;18.80;;;;;;;;;;6216084;23;20193;-85
2022/01/16 09:02:03;;;;;;;21.63;18.13;;;;;;;;;;6216876;23;20200;-90
2022/01/16 09:04:31;;;;;;;23.27;18.27;;;;;;;;;;6215192;23;20232;-86
2022/01/16 09:07:00;;;;;;;21.97;18.57;;;;;;;;;;6216165;23;20189;-84
2022/01/16 09:09:27;;;;;;;22.17;17.90;;;;;;;;;;6218218;23;20194;-86
2022/01/16 09:11:56;;;;;;;21.53;17.67;;;;;;;;;;6216824;23;20220;-87
2022/01/16 09:14:27;;;;;;;19.20;16.73;;;;;;;;;;6216413;23;20173;-89
2022/01/16 09:16:55;;;;;;;20.70;16.90;;;;;;;;;;6216605;23;20177;-88
2022/01/16 09:19:22;;;;;;;20.50;17.23;;;;;;;;;;6216506;23;20194;-87
2022/01/16 09:21:51;;;;;;;20.20;16.57;;;;;;;;;;6217681;23;20243;-85
2022/01/16 09:24:20;;;;;;;18.27;15.93;;;;;;;;;;6216319;23;20177;-86
2022/01/16 09:26:48;;;;;;;22.00;17.80;;;;;;;;;;6215513;23;20200;-87
2022/01/16 09:29:15;;;;;;;21.87;17.80;;;;;;;;;;6216074;23;20180;-86
2022/01/16 09:31:45;;;;;;;19.83;16.50;;;;;;;;;;6215677;23;20215;-88
2022/01/16 09:34:12;;;;;;;19.70;16.37;;;;;;;;;;6214195;23;20173;-87
2022/01/16 09:36:40;;;;;;;20.83;17.00;;;;;;;;;;6215581;23;20177;-86
2022/01/16 09:39:07;;;;;;;21.27;16.60;;;;;;;;;;6218786;23;20180;-88
2022/01/16 09:41:37;;;;;;;19.80;17.40;;;;;;;;;;6216464;23;20196;-88
2022/01/16 09:44:05;;;;;;;21.13;17.77;;;;;;;;;;6217942;23;20192;-85
2022/01/16 09:46:34;;;;;;;20.87;16.77;;;;;;;;;;6222214;23;20173;-86
2022/01/16 09:49:01;;;;;;;21.27;16.87;;;;;;;;;;6220041;23;20181;-85
2022/01/16 09:51:33;;;;;;;22.73;17.53;;;;;;;;;;6219156;23;20173;-87
2022/01/16 09:54:01;;;;;;;20.67;17.40;;;;;;;;;;6215471;23;20176;-88
2022/01/16 09:56:33;;;;;;;21.80;17.23;;;;;;;;;;6216766;23;20258;-87
2022/01/16 09:59:02;;;;;;;22.60;17.80;;;;;;;;;;6216633;23;20232;-86
2022/01/16 10:01:29;;;;;;;20.60;16.93;;;;;;;;;;6216532;23;20176;-91
2022/01/16 10:03:59;;;;;;;21.20;17.50;;;;;;;;;;6217302;23;20189;-90
2022/01/16 10:06:26;;;;;;;22.40;17.80;;;;;;;;;;6215566;23;20173;-86
2022/01/16 10:08:55;;;;;;;22.30;17.93;;;;;;;;;;6213923;23;20177;-91
2022/01/16 10:11:33;;;;;;;22.17;17.67;;;;;;;;;;6217656;23;20213;-85
2022/01/16 10:14:08;;;;;;;22.13;17.70;;;;;;;;;;6216805;23;20188;-86
2022/01/16 10:16:37;;;;;;;21.77;17.77;;;;;;;;;;6214876;23;20169;-85
2022/01/16 10:19:19;;;;;;;22.63;18.23;;;;;;;;;;6216160;23;20186;-85
2022/01/16 10:21:47;;;;;;;22.47;18.60;;;;;;;;;;6219036;23;20219;-86
2022/01/16 10:24:18;;;;;;;21.90;17.83;;;;;;;;;;6216771;23;20280;-87
2022/01/16 10:26:46;;;;;;;23.40;19.03;;;;;;;;;;6215568;23;20173;-88
2022/01/16 10:31:50;;;;;;;20.77;17.43;;;;;;;;;;6161400;23;20202;-81
2022/01/16 10:34:24;;;;;;;21.80;18.10;;;;;;;;;;6162389;23;20173;-81
2022/01/16 10:36:52;;;;;;;22.13;18.00;;;;;;;;;;6162541;23;20232;-81
2022/01/16 10:39:19;;;;;;;22.60;17.97;;;;;;;;;;6162781;23;20170;-82
2022/01/16 10:41:47;;;;;;;22.43;18.23;;;;;;;;;;6164143;23;20191;-83
2022/01/16 10:44:30;;;;;;;22.20;17.17;;;;;;;;;;6161881;23;20181;-83
2022/01/16 10:47:14;;;;;;;22.33;17.03;;;;;;;;;;6161113;23;20150;-83
2022/01/16 10:49:43;;;;;;;23.10;17.83;;;;;;;;;;6160792;23;20178;-83
2022/01/16 10:52:11;;;;;;;22.47;18.23;;;;;;;;;;6162185;23;20178;-82
2022/01/16 10:54:40;;;;;;;21.97;17.60;;;;;;;;;;6164830;23;20171;-82
2022/01/16 10:57:24;;;;;;;23.37;19.57;;;;;;;;;;6161598;23;20200;-82
2022/01/16 10:59:52;;;;;;;25.30;19.70;;;;;;;;;;6162357;23;20186;-84
2022/01/16 11:02:28;;;;;;;23.33;19.23;;;;;;;;;;6158332;23;20194;-84
2022/01/16 11:05:10;;;;;;;27.00;19.67;;;;;;;;;;6157819;23;20211;-84
2022/01/16 11:07:44;;;;;;;27.37;19.00;;;;;;;;;;6154550;23;20183;-82
2022/01/16 11:10:31;;;;;;;28.00;20.00;;;;;;;;;;6158631;23;20261;-85
2022/01/16 11:13:03;;;;;;;26.07;19.40;;;;;;;;;;6163690;23;20167;-84
2022/01/16 11:15:56;;;;;;;27.40;19.30;;;;;;;;;;6166546;23;20167;-88
2022/01/16 11:18:24;;;;;;;25.63;18.53;;;;;;;;;;6167038;23;20171;-85
2022/01/16 11:21:07;;;;;;;26.27;19.10;;;;;;;;;;6170859;23;20195;-83
2022/01/16 11:23:48;;;;;;;26.50;19.33;;;;;;;;;;6167711;23;20206;-85
2022/01/16 11:26:16;;;;;;;29.13;19.47;;;;;;;;;;6167242;23;20246;-83
2022/01/16 11:28:43;;;;;;;25.97;18.80;;;;;;;;;;6166249;23;20170;-83
2022/01/16 11:31:12;;;;;;;26.63;18.80;;;;;;;;;;6167861;23;20202;-83
2022/01/16 11:33:42;;;;;;;27.97;19.87;;;;;;;;;;6163719;23;20177;-85
2022/01/16 11:36:12;;;;;;;29.97;19.70;;;;;;;;;;6162816;23;20292;-82
2022/01/16 11:38:43;;;;;;;29.03;18.87;;;;;;;;;;6162467;23;20182;-82
2022/01/16 11:41:13;;;;;;;30.37;19.30;;;;;;;;;;6160313;23;20195;-83
2022/01/16 11:43:41;;;;;;;29.63;20.00;;;;;;;;;;6163737;23;20200;-83
2022/01/16 11:46:10;;;;;;;31.73;19.53;;;;;;;;;;6161019;23;20174;-83
2022/01/16 11:48:43;;;;;;;30.30;18.97;;;;;;;;;;6159083;23;20174;-87
2022/01/16 11:57:45;;;;;;;27.23;17.90;;;;;;;;;;5948999;24;20210;-85
2022/01/16 12:00:15;;;;;;;28.33;18.37;;;;;;;;;;6083300;23;20205;-83
2022/01/16 12:02:48;;;;;;;28.43;17.13;;;;;;;;;;6157355;23;20222;-87
2022/01/16 12:05:22;;;;;;;29.33;18.00;;;;;;;;;;6157545;23;20163;-87
2022/01/16 12:08:11;;;;;;;26.93;17.40;;;;;;;;;;6157708;23;20233;-87
2022/01/16 12:11:04;;;;;;;26.93;17.67;;;;;;;;;;6151787;23;20197;-90
2022/01/16 12:13:44;;;;;;;27.67;17.27;;;;;;;;;;6059553;23;20202;-88
2022/01/16 12:16:30;;;;;;;26.90;17.00;;;;;;;;;;6057694;23;20182;-86
2022/01/16 12:19:18;;;;;;;26.50;17.73;;;;;;;;;;6057288;23;20192;-87
2022/01/16 12:21:56;;;;;;;27.17;18.03;;;;;;;;;;6060562;23;20195;-86
2022/01/16 12:24:43;;;;;;;24.90;16.30;;;;;;;;;;6062325;23;20207;-87
2022/01/16 12:27:30;;;;;;;31.53;17.33;;;;;;;;;;6062640;23;20182;-87
2022/01/16 12:30:16;;;;;;;25.03;16.80;;;;;;;;;;6064338;23;20201;-86
2022/01/16 12:32:50;;;;;;;26.33;16.73;;;;;;;;;;6045707;23;20177;-85
2022/01/16 12:35:37;;;;;;;25.67;16.27;;;;;;;;;;6044235;23;20176;-85
2022/01/16 12:38:08;;;;;;;25.57;17.03;;;;;;;;;;6042750;23;20217;-85
2022/01/16 12:40:35;;;;;;;22.73;15.20;;;;;;;;;;6045018;23;20204;-85
2022/01/16 12:43:04;;;;;;;23.93;15.37;;;;;;;;;;6044184;23;20201;-82
2022/01/16 12:45:36;;;;;;;23.67;16.03;;;;;;;;;;6043538;23;20281;-86
2022/01/16 12:48:04;;;;;;;21.13;15.50;;;;;;;;;;6043834;23;20170;-85
2022/01/16 12:50:33;;;;;;;23.70;15.10;;;;;;;;;;6126086;23;20195;-85
2022/01/16 12:53:01;;;;;;;20.70;15.23;;;;;;;;;;6162639;23;20198;-86
2022/01/16 12:55:33;;;;;;;22.73;15.53;;;;;;;;;;6163300;23;20179;-84
2022/01/16 12:58:17;;;;;;;21.57;14.63;;;;;;;;;;6162317;23;20213;-86
2022/01/16 13:00:58;;;;;;;20.63;14.73;;;;;;;;;;6172007;23;20178;-86
2022/01/16 13:03:27;;;;;;;21.50;14.23;;;;;;;;;;6159158;23;20197;-83
2022/01/16 13:06:14;;;;;;;20.43;14.47;;;;;;;;;;6159271;23;20174;-85
2022/01/16 13:08:51;;;;;;;20.83;15.00;;;;;;;;;;6171331;23;20171;-84
2022/01/16 13:11:22;;;;;;;21.07;14.10;;;;;;;;;;6156763;23;20254;-83
2022/01/16 13:13:49;;;;;;;19.37;13.93;;;;;;;;;;6158088;23;20171;-84
2022/01/16 13:16:23;;;;;;;19.10;13.33;;;;;;;;;;6157929;23;20171;-84
2022/01/16 13:19:08;;;;;;;20.00;14.40;;;;;;;;;;6157324;23;20602;-83
2022/01/16 13:21:59;;;;;;;18.60;13.50;;;;;;;;;;6157681;23;20206;-85
2022/01/16 13:24:27;;;;;;;17.90;12.60;;;;;;;;;;6158746;23;20187;-84
2022/01/16 13:26:56;;;;;;;16.93;12.17;;;;;;;;;;6160132;23;20171;-85
2022/01/16 13:29:24;;;;;;;17.40;13.20;;;;;;;;;;6160335;23;20178;-83
2022/01/16 13:31:54;;;;;;;18.77;12.97;;;;;;;;;;6162595;23;20253;-84
2022/01/16 13:34:35;;;;;;;16.27;12.20;;;;;;;;;;6160392;23;20187;-86
2022/01/16 13:37:06;;;;;;;17.00;12.83;;;;;;;;;;6156898;23;20170;-84
2022/01/16 13:39:35;;;;;;;17.40;12.97;;;;;;;;;;6157836;23;20202;-86
2022/01/16 13:42:28;;;;;;;17.10;13.00;;;;;;;;;;6161411;23;20177;-88
2022/01/16 13:45:14;;;;;;;16.43;13.03;;;;;;;;;;6159154;23;20281;-86
2022/01/16 13:47:41;;;;;;;15.17;11.57;;;;;;;;;;6159429;23;20175;-87
2022/01/16 13:50:13;;;;;;;18.33;12.83;;;;;;;;;;6157904;23;20199;-86
2022/01/16 13:52:50;;;;;;;15.00;11.77;;;;;;;;;;6157839;23;20166;-87
2022/01/16 13:55:19;;;;;;;16.60;12.27;;;;;;;;;;6157260;23;20175;-88
2022/01/16 13:57:48;;;;;;;15.80;12.17;;;;;;;;;;6155361;23;20181;-87
2022/01/16 14:00:19;;;;;;;15.83;12.10;;;;;;;;;;6156655;23;20229;-87
2022/01/16 14:02:47;;;;;;;19.77;12.97;;;;;;;;;;6158044;23;20209;-86
2022/01/16 14:05:23;;;;;;;15.80;12.10;;;;;;;;;;6155826;23;20166;-87
2022/01/16 14:07:53;;;;;;;16.13;12.07;;;;;;;;;;6155994;23;20245;-86
2022/01/16 14:10:35;;;;;;;16.00;12.13;;;;;;;;;;6156762;23;20201;-87
2022/01/16 14:13:04;;;;;;;15.90;11.87;;;;;;;;;;6155500;23;20174;-85
2022/01/16 14:15:31;;;;;;;18.03;12.77;;;;;;;;;;6155564;23;20190;-87
2022/01/16 14:18:06;;;;;;;14.57;11.93;;;;;;;;;;6157126;23;20178;-86
2022/01/16 14:23:17;;;;;;;15.97;12.33;;;;;;;;;;6162928;23;20194;-85
2022/01/16 14:25:44;;;;;;;18.07;12.30;;;;;;;;;;6165128;23;20225;-84
2022/01/16 14:28:13;;;;;;;15.47;12.30;;;;;;;;;;6164127;23;20166;-85
2022/01/16 14:30:41;;;;;;;16.57;12.37;;;;;;;;;;6163598;23;20202;-85
2022/01/16 14:33:08;;;;;;;15.87;12.27;;;;;;;;;;6161700;23;20182;-85
2022/01/16 14:35:35;;;;;;;15.77;12.20;;;;;;;;;;6162532;23;20170;-85
2022/01/16 14:38:03;;;;;;;15.63;12.10;;;;;;;;;;6160918;23;20698;-85
2022/01/16 14:40:32;;;;;;;15.40;11.87;;;;;;;;;;6157361;23;20199;-90
2022/01/16 14:43:04;;;;;;;22.63;15.03;;;;;;;;;;6157703;23;20178;-87
2022/01/16 14:45:34;;;;;;;18.77;12.93;;;;;;;;;;6156812;23;20166;-87
2022/01/16 14:48:09;;;;;;;15.47;11.97;;;;;;;;;;6156789;23;20182;-87
2022/01/16 14:50:36;;;;;;;13.67;10.33;;;;;;;;;;6157517;23;20193;-86
2022/01/16 14:53:03;;;;;;;14.13;10.70;;;;;;;;;;6159245;23;20236;-84
2022/01/16 14:55:31;;;;;;;12.57;9.73;;;;;;;;;;6158365;23;20190;-87
2022/01/16 14:57:58;;;;;;;13.13;10.60;;;;;;;;;;6158250;23;20176;-87
2022/01/16 15:00:25;;;;;;;13.07;9.77;;;;;;;;;;6158134;23;20194;-85
2022/01/16 15:02:54;;;;;;;13.27;10.13;;;;;;;;;;6160387;23;20181;-86
2022/01/16 15:05:22;;;;;;;11.97;9.70;;;;;;;;;;6163123;23;20206;-87
2022/01/16 15:07:49;;;;;;;13.53;10.00;;;;;;;;;;6165449;23;20199;-87
2022/01/16 15:10:16;;;;;;;11.53;10.00;;;;;;;;;;6156608;23;20245;-87
2022/01/16 15:12:46;;;;;;;13.87;10.10;;;;;;;;;;6158349;23;20210;-86
2022/01/16 15:15:14;;;;;;;13.80;10.33;;;;;;;;;;6158490;23;20225;-87
2022/01/16 15:17:44;;;;;;;12.63;10.20;;;;;;;;;;6157575;23;20170;-87
2022/01/16 15:20:22;;;;;;;12.80;10.60;;;;;;;;;;6157680;23;20214;-87
2022/01/16 15:22:50;;;;;;;12.60;9.77;;;;;;;;;;6157014;23;20244;-86
2022/01/16 15:25:18;;;;;;;12.20;9.73;;;;;;;;;;6156550;23;20187;-89
2022/01/16 15:27:47;;;;;;;12.20;9.47;;;;;;;;;;6157736;23;20246;-87
2022/01/16 15:30:14;;;;;;;11.83;9.67;;;;;;;;;;6157748;23;20210;-85
2022/01/16 15:32:45;;;;;;;14.10;10.13;;;;;;;;;;6159207;23;20229;-87
2022/01/16 15:35:17;;;;;;;12.00;9.47;;;;;;;;;;6157493;23;20166;-87
2022/01/16 15:37:46;;;;;;;11.00;8.87;;;;;;;;;;6158456;23;20166;-86
2022/01/16 15:40:14;;;;;;;10.70;9.00;;;;;;;;;;6156949;23;20218;-86
2022/01/16 15:42:42;;;;;;;11.63;9.17;;;;;;;;;;6157781;23;20175;-87